Time;durP1;ratioP1;P1;durP2;ratioP2;P2;SDS_P1;SDS_P2;PMS_P1;PMS_P2;Temp;Humidity;BMP_temperature;BMP_pressure;BME280_temperature;BME280_humidity;BME280_pressure;Samples;Min_cycle;Max_cycle;Signal;HPM_P1;HPM_P2
2021/11/11 00:00:18;;;;;;;21.65;12.50;;;5.80;51.80;;;;;;4954090;28;20043;-60
2021/11/11 00:02:45;;;;;;;18.67;11.85;;;5.80;52.00;;;;;;4952627;28;20448;-60
2021/11/11 00:05:10;;;;;;;20.30;12.13;;;5.70;52.10;;;;;;4954569;28;20033;-60
2021/11/11 00:07:37;;;;;;;20.10;11.80;;;5.70;52.10;;;;;;4952353;28;20050;-59
2021/11/11 00:10:04;;;;;;;19.40;11.45;;;5.70;52.20;;;;;;4952162;29;20078;-59
2021/11/11 00:12:34;;;;;;;16.92;10.18;;;5.60;52.10;;;;;;4952228;28;20044;-60
2021/11/11 00:15:02;;;;;;;19.85;11.27;;;5.60;52.20;;;;;;4951476;29;20024;-59
2021/11/11 00:17:28;;;;;;;15.98;10.13;;;5.60;52.40;;;;;;4953980;28;20533;-60
2021/11/11 00:19:54;;;;;;;13.75;8.15;;;5.50;52.40;;;;;;4950273;29;20098;-59
2021/11/11 00:22:20;;;;;;;11.73;8.63;;;5.50;52.70;;;;;;4958132;28;20023;-58
2021/11/11 00:24:45;;;;;;;12.60;8.02;;;5.40;52.60;;;;;;4956979;28;20059;-59
2021/11/11 00:27:11;;;;;;;14.70;8.00;;;5.40;52.70;;;;;;4954410;28;20019;-60
2021/11/11 00:29:37;;;;;;;14.05;7.72;;;5.40;52.80;;;;;;4954747;28;20030;-59
2021/11/11 00:32:04;;;;;;;13.68;7.28;;;5.30;52.80;;;;;;4953649;28;20035;-59
2021/11/11 00:34:31;;;;;;;7.78;5.85;;;5.30;53.10;;;;;;4954248;28;20095;-60
2021/11/11 00:36:56;;;;;;;9.48;6.55;;;5.30;53.00;;;;;;4949543;28;20023;-60
2021/11/11 00:39:22;;;;;;;11.00;6.63;;;5.30;53.00;;;;;;4955329;28;20385;-60
2021/11/11 00:41:47;;;;;;;11.13;7.53;;;5.30;53.30;;;;;;4951562;28;20023;-59
2021/11/11 00:44:13;;;;;;;8.57;6.47;;;5.30;53.20;;;;;;4952854;28;20106;-60
2021/11/11 00:46:39;;;;;;;12.70;7.93;;;5.20;53.30;;;;;;4950806;28;20038;-60
2021/11/11 00:49:08;;;;;;;11.00;7.53;;;5.20;53.40;;;;;;4942101;29;20031;-59
2021/11/11 00:51:36;;;;;;;9.07;6.85;;;5.20;53.40;;;;;;4953102;28;20459;-60
2021/11/11 00:54:03;;;;;;;10.90;6.97;;;5.30;53.50;;;;;;4955177;28;20027;-60
2021/11/11 00:56:29;;;;;;;11.00;7.18;;;5.30;53.50;;;;;;4947348;28;20029;-59
2021/11/11 00:58:55;;;;;;;9.00;7.00;;;5.30;53.70;;;;;;4944022;29;20095;-60
2021/11/11 01:01:21;;;;;;;9.70;7.18;;;5.30;53.80;;;;;;4947449;29;20024;-59
2021/11/11 01:03:49;;;;;;;11.45;7.82;;;5.30;53.80;;;;;;4954011;28;20527;-59
2021/11/11 01:06:16;;;;;;;10.82;7.65;;;5.30;53.90;;;;;;4939195;29;20024;-59
2021/11/11 01:08:42;;;;;;;10.02;7.43;;;5.30;54.60;;;;;;4941459;29;20019;-60
2021/11/11 01:11:08;;;;;;;10.50;6.88;;;5.30;53.90;;;;;;4939915;29;20396;-59
2021/11/11 01:13:35;;;;;;;9.90;7.28;;;5.30;53.90;;;;;;4944488;28;20488;-59
2021/11/11 01:16:02;;;;;;;10.15;8.10;;;5.40;53.90;;;;;;4937741;28;20024;-60
2021/11/11 01:18:27;;;;;;;11.55;7.22;;;5.40;54.00;;;;;;4939894;28;20524;-60
2021/11/11 01:20:53;;;;;;;7.40;6.55;;;5.30;53.90;;;;;;4945106;28;20121;-60
2021/11/11 01:23:19;;;;;;;12.90;8.77;;;5.40;54.70;;;;;;4953670;28;20040;-60
2021/11/11 01:25:44;;;;;;;9.85;7.63;;;5.30;54.10;;;;;;4947889;28;20027;-59
2021/11/11 01:28:10;;;;;;;9.30;6.32;;;5.30;54.30;;;;;;4949520;28;20532;-60
2021/11/11 01:30:39;;;;;;;10.52;5.93;;;5.30;54.30;;;;;;4948104;28;20070;-60
2021/11/11 01:33:06;;;;;;;9.60;7.60;;;5.30;54.30;;;;;;4942109;28;20474;-60
2021/11/11 01:35:32;;;;;;;8.93;7.20;;;5.30;54.30;;;;;;4946448;29;20019;-58
2021/11/11 01:37:58;;;;;;;9.05;6.25;;;5.30;54.40;;;;;;4942638;28;20027;-59
2021/11/11 01:40:24;;;;;;;8.93;6.40;;;5.30;54.50;;;;;;4945186;29;20043;-59
2021/11/11 01:42:52;;;;;;;7.63;6.40;;;5.30;54.60;;;;;;4946682;28;20497;-59
2021/11/11 01:45:33;;;;;;;8.82;6.00;;;5.30;54.70;;;;;;4946715;28;20498;-60
2021/11/11 01:47:59;;;;;;;7.43;6.18;;;5.30;54.70;;;;;;4948835;28;20488;-59
2021/11/11 01:50:27;;;;;;;8.23;5.82;;;5.30;54.80;;;;;;4945456;29;20069;-60
2021/11/11 01:52:53;;;;;;;7.43;5.53;;;5.30;54.90;;;;;;4951571;28;20134;-59
2021/11/11 01:55:19;;;;;;;11.00;6.32;;;5.20;54.90;;;;;;4948604;29;20043;-59
2021/11/11 01:57:45;;;;;;;8.80;6.38;;;5.20;54.90;;;;;;4948576;28;20539;-59
2021/11/11 02:00:19;;;;;;;8.60;6.05;;;5.20;55.00;;;;;;4956456;28;20106;-60
2021/11/11 02:02:45;;;;;;;8.35;6.05;;;5.20;55.10;;;;;;4946337;28;20047;-60
2021/11/11 02:05:11;;;;;;;6.85;5.60;;;5.20;55.30;;;;;;4951778;28;20035;-60
2021/11/11 02:07:36;;;;;;;9.00;5.60;;;5.30;55.50;;;;;;4957045;28;20031;-60
2021/11/11 02:10:03;;;;;;;8.25;6.07;;;5.20;55.50;;;;;;4951520;28;20538;-58
2021/11/11 02:12:30;;;;;;;8.93;5.90;;;5.20;55.50;;;;;;4955390;28;20023;-59
2021/11/11 02:14:57;;;;;;;7.68;5.65;;;5.20;55.60;;;;;;4957382;28;20435;-59
2021/11/11 02:17:30;;;;;;;11.07;6.18;;;5.20;55.60;;;;;;4949634;28;20070;-59
2021/11/11 02:20:00;;;;;;;8.55;5.85;;;5.10;55.60;;;;;;4945687;28;20116;-59
2021/11/11 02:22:25;;;;;;;8.98;6.47;;;5.10;55.80;;;;;;4960510;28;20118;-59
2021/11/11 02:24:51;;;;;;;7.28;5.30;;;5.00;55.80;;;;;;4946062;28;20066;-59
2021/11/11 02:27:17;;;;;;;7.05;5.05;;;5.00;55.90;;;;;;4951565;29;20027;-59
2021/11/11 02:29:42;;;;;;;6.90;5.55;;;5.00;56.00;;;;;;4951482;28;20050;-59
2021/11/11 02:32:08;;;;;;;5.20;4.45;;;5.00;56.10;;;;;;4951094;28;20035;-58
2021/11/11 02:34:34;;;;;;;6.03;4.80;;;5.00;56.20;;;;;;4950900;29;20023;-60
2021/11/11 02:37:03;;;;;;;6.32;4.53;;;4.90;56.30;;;;;;4955565;28;20098;-59
2021/11/11 02:39:30;;;;;;;7.90;4.82;;;4.90;56.30;;;;;;4949587;29;20048;-60
2021/11/11 02:41:56;;;;;;;5.78;4.45;;;4.90;56.50;;;;;;4952288;28;20035;-59
2021/11/11 02:44:22;;;;;;;5.25;4.57;;;4.90;56.70;;;;;;4947471;28;20030;-59
2021/11/11 02:46:47;;;;;;;6.13;4.65;;;4.90;56.70;;;;;;4951781;29;20098;-59
2021/11/11 02:49:13;;;;;;;5.22;4.32;;;4.90;56.70;;;;;;4947167;28;20082;-60
2021/11/11 02:51:38;;;;;;;7.97;4.97;;;4.90;56.80;;;;;;4954556;28;20031;-59
2021/11/11 02:54:04;;;;;;;6.25;4.75;;;4.90;56.90;;;;;;4955689;28;20058;-59
2021/11/11 02:56:30;;;;;;;6.53;4.88;;;4.90;57.00;;;;;;4951760;28;20028;-58
2021/11/11 02:58:55;;;;;;;6.55;5.40;;;4.90;57.10;;;;;;4944492;28;20384;-59
2021/11/11 03:01:21;;;;;;;7.32;5.85;;;4.80;57.00;;;;;;4944107;29;20031;-59
2021/11/11 03:03:47;;;;;;;8.82;6.82;;;4.80;57.10;;;;;;4944940;28;20031;-59
2021/11/11 03:06:14;;;;;;;7.43;6.43;;;4.80;57.10;;;;;;4941420;28;20059;-59
2021/11/11 03:08:40;;;;;;;7.25;5.82;;;4.80;57.10;;;;;;4948658;29;20030;-59
2021/11/11 03:11:05;;;;;;;9.50;6.97;;;4.90;57.20;;;;;;4954964;28;20027;-59
2021/11/11 03:13:31;;;;;;;9.02;6.35;;;4.90;57.20;;;;;;4955085;28;20150;-60
2021/11/11 03:15:58;;;;;;;9.25;6.60;;;4.90;57.20;;;;;;4955373;28;20529;-60
2021/11/11 03:18:24;;;;;;;7.60;6.03;;;4.90;57.30;;;;;;4956173;28;20034;-59
2021/11/11 03:20:50;;;;;;;7.75;6.13;;;4.90;57.20;;;;;;4955489;28;20023;-58
2021/11/11 03:23:15;;;;;;;8.20;5.45;;;4.90;57.20;;;;;;4955693;28;20360;-59
2021/11/11 03:25:42;;;;;;;6.22;4.90;;;4.90;57.30;;;;;;4954276;28;20119;-59
2021/11/11 03:28:08;;;;;;;7.30;5.07;;;4.90;57.30;;;;;;4955477;28;20033;-59
2021/11/11 03:30:35;;;;;;;6.80;4.90;;;4.90;57.30;;;;;;4953522;28;20106;-59
2021/11/11 03:33:01;;;;;;;6.90;5.22;;;4.90;57.40;;;;;;4954676;28;20039;-58
2021/11/11 03:35:27;;;;;;;6.68;4.55;;;4.90;57.40;;;;;;4953019;28;20031;-59
2021/11/11 03:37:54;;;;;;;7.35;4.63;;;4.90;57.30;;;;;;4953805;28;20027;-59
2021/11/11 03:40:26;;;;;;;5.78;3.97;;;4.90;57.40;;;;;;4948347;28;20054;-59
2021/11/11 03:42:54;;;;;;;7.10;4.80;;;4.90;57.30;;;;;;4941831;29;20059;-59
2021/11/11 03:45:20;;;;;;;5.22;4.18;;;4.90;57.40;;;;;;4947098;28;20535;-59
2021/11/11 03:47:49;;;;;;;6.07;4.25;;;4.80;57.40;;;;;;4946617;28;20019;-59
2021/11/11 03:50:16;;;;;;;6.90;4.68;;;4.80;57.50;;;;;;4941130;29;20114;-59
2021/11/11 03:52:42;;;;;;;5.82;4.70;;;4.80;57.60;;;;;;4953279;28;20039;-59
2021/11/11 03:55:09;;;;;;;6.07;4.70;;;4.80;57.70;;;;;;4947783;28;20122;-59
2021/11/11 03:57:36;;;;;;;7.55;5.00;;;4.80;57.70;;;;;;4953446;28;20042;-60
2021/11/11 04:00:05;;;;;;;7.88;5.50;;;4.80;57.80;;;;;;4953233;28;20030;-59
2021/11/11 04:02:31;;;;;;;7.60;5.35;;;4.70;57.80;;;;;;4955733;28;20023;-59
2021/11/11 04:04:56;;;;;;;7.57;4.90;;;4.70;57.80;;;;;;4952862;28;20079;-59
2021/11/11 04:07:22;;;;;;;10.90;6.22;;;4.70;57.90;;;;;;4949802;28;20027;-59
2021/11/11 04:09:48;;;;;;;7.20;4.90;;;4.70;58.00;;;;;;4951659;28;20038;-59
2021/11/11 04:12:14;;;;;;;10.25;6.10;;;4.70;58.10;;;;;;4952184;28;20024;-59
2021/11/11 04:14:40;;;;;;;8.88;6.03;;;4.60;58.00;;;;;;4953614;28;20102;-59
2021/11/11 04:17:05;;;;;;;7.10;4.95;;;4.60;58.20;;;;;;4952993;28;20028;-59
2021/11/11 04:19:31;;;;;;;6.70;5.45;;;4.60;58.20;;;;;;4953186;28;20022;-59
2021/11/11 04:21:57;;;;;;;6.65;4.80;;;4.60;58.40;;;;;;4950866;28;20110;-59
2021/11/11 04:24:23;;;;;;;7.93;4.30;;;4.50;58.40;;;;;;4941783;28;20543;-59
2021/11/11 04:27:13;;;;;;;5.95;4.22;;;4.50;58.40;;;;;;4954715;28;20035;-59
2021/11/11 04:29:44;;;;;;;7.30;4.07;;;4.50;58.60;;;;;;4942707;29;20027;-59
2021/11/11 04:32:11;;;;;;;5.63;4.22;;;4.40;58.70;;;;;;4954085;28;20117;-59
2021/11/11 04:34:39;;;;;;;7.38;4.32;;;4.40;58.70;;;;;;4954922;28;20102;-59
2021/11/11 04:39:52;;;;;;;5.82;4.45;;;4.40;58.90;;;;;;4953864;28;20070;-59
2021/11/11 05:03:35;;;;;;;5.63;3.92;;;4.40;59.10;;;;;;4944040;29;20038;-59
2021/11/11 05:06:01;;;;;;;6.75;4.35;;;4.40;59.30;;;;;;4949638;29;20035;-59
2021/11/11 05:08:28;;;;;;;5.18;3.75;;;4.50;59.30;;;;;;4946455;28;20034;-59
2021/11/11 05:10:55;;;;;;;5.60;4.68;;;4.50;59.30;;;;;;4952544;28;20035;-59
2021/11/11 05:13:21;;;;;;;6.53;3.90;;;4.50;59.20;;;;;;4954195;28;20054;-59
2021/11/11 05:15:47;;;;;;;5.18;3.72;;;4.50;59.40;;;;;;4948411;28;20024;-59
2021/11/11 05:18:12;;;;;;;5.65;4.22;;;4.50;59.50;;;;;;4956780;28;20046;-59
2021/11/11 05:20:38;;;;;;;5.45;3.70;;;4.50;59.30;;;;;;4946110;28;20020;-59
2021/11/11 05:23:04;;;;;;;5.90;4.30;;;4.50;59.40;;;;;;4965460;28;20450;-59
2021/11/11 05:25:30;;;;;;;4.28;3.65;;;4.60;59.50;;;;;;4944710;28;20027;-61
2021/11/11 05:27:56;;;;;;;5.15;3.95;;;4.60;59.50;;;;;;4945439;28;20027;-59
2021/11/11 05:30:23;;;;;;;8.93;4.65;;;4.60;59.50;;;;;;4936506;29;20444;-59
2021/11/11 05:32:50;;;;;;;8.32;4.75;;;4.70;59.40;;;;;;4935800;29;20024;-59
2021/11/11 05:35:16;;;;;;;6.00;4.75;;;4.70;59.30;;;;;;4935979;29;20019;-60
2021/11/11 05:37:43;;;;;;;5.78;4.82;;;4.80;59.30;;;;;;4935569;29;20083;-59
2021/11/11 05:40:10;;;;;;;8.02;4.65;;;4.80;59.30;;;;;;4936284;29;20187;-59
2021/11/11 05:42:36;;;;;;;7.80;4.93;;;4.90;59.30;;;;;;4957082;29;20066;-59
2021/11/11 05:45:04;;;;;;;10.00;5.40;;;4.90;59.20;;;;;;4953122;28;20028;-61
2021/11/11 05:47:30;;;;;;;9.02;5.07;;;5.00;59.20;;;;;;4955683;29;20019;-59
2021/11/11 05:49:55;;;;;;;8.30;5.82;;;5.00;59.20;;;;;;4949709;28;20024;-62
2021/11/11 05:52:21;;;;;;;9.90;5.05;;;5.00;59.20;;;;;;4952545;28;20035;-59
2021/11/11 05:54:47;;;;;;;7.05;5.55;;;5.00;59.00;;;;;;4953788;28;20098;-59
2021/11/11 05:57:13;;;;;;;6.78;4.90;;;5.10;59.10;;;;;;4949657;28;20032;-59
2021/11/11 05:59:41;;;;;;;6.95;4.82;;;5.10;59.00;;;;;;4953541;28;20035;-60
2021/11/11 06:02:07;;;;;;;7.60;5.45;;;5.10;58.90;;;;;;4955115;28;20031;-59
2021/11/11 06:04:33;;;;;;;6.93;4.70;;;5.20;59.00;;;;;;4953640;28;20043;-59
2021/11/11 06:06:59;;;;;;;7.88;5.25;;;5.20;58.90;;;;;;4961444;28;20090;-59
2021/11/11 06:09:25;;;;;;;6.28;4.70;;;5.30;58.90;;;;;;4944210;28;20471;-59
2021/11/11 06:11:50;;;;;;;7.00;4.75;;;5.40;58.90;;;;;;4941900;29;20525;-59
2021/11/11 06:14:16;;;;;;;7.78;5.28;;;5.50;58.70;;;;;;4950988;29;20046;-59
2021/11/11 06:16:42;;;;;;;7.50;5.63;;;5.50;58.60;;;;;;4943647;29;20428;-59
2021/11/11 06:19:09;;;;;;;8.15;5.93;;;5.60;58.50;;;;;;4953354;28;20038;-61
2021/11/11 06:21:37;;;;;;;9.60;7.72;;;5.70;58.40;;;;;;4951013;28;20035;-59
2021/11/11 06:24:03;;;;;;;10.50;8.02;;;5.70;58.40;;;;;;4955540;28;20031;-60
2021/11/11 06:26:28;;;;;;;11.50;8.05;;;5.80;58.20;;;;;;4944125;28;20031;-60
2021/11/11 06:28:54;;;;;;;10.93;8.55;;;5.90;58.20;;;;;;4953394;28;20038;-60
2021/11/11 06:31:20;;;;;;;14.60;8.88;;;5.90;58.20;;;;;;4951189;28;20025;-60
2021/11/11 06:33:46;;;;;;;8.93;6.53;;;6.00;58.20;;;;;;4950740;28;20035;-59
2021/11/11 06:36:13;;;;;;;7.82;6.38;;;6.00;58.00;;;;;;4961018;28;20019;-59
2021/11/11 06:38:38;;;;;;;9.23;6.22;;;6.10;58.00;;;;;;4958665;28;20020;-59
2021/11/11 06:41:04;;;;;;;10.48;5.95;;;6.10;57.90;;;;;;4951121;28;20507;-60
2021/11/11 06:43:31;;;;;;;8.13;6.05;;;6.10;57.70;;;;;;4947329;28;20042;-60
2021/11/11 06:45:56;;;;;;;9.23;5.43;;;6.10;57.60;;;;;;4948428;29;20033;-59
2021/11/11 06:48:22;;;;;;;8.05;5.47;;;6.10;57.70;;;;;;4956043;28;20578;-58
2021/11/11 06:50:49;;;;;;;7.85;5.28;;;6.10;57.70;;;;;;4956280;28;20047;-60
2021/11/11 06:53:17;;;;;;;6.97;4.88;;;6.10;57.70;;;;;;4952827;28;20030;-59
2021/11/11 06:55:44;;;;;;;6.90;3.83;;;6.10;57.70;;;;;;4945574;28;20023;-59
2021/11/11 06:58:11;;;;;;;6.63;4.00;;;6.20;57.60;;;;;;4949226;28;20046;-60
2021/11/11 07:00:37;;;;;;;5.82;3.90;;;6.20;57.40;;;;;;4946953;28;20023;-59
2021/11/11 07:03:03;;;;;;;6.22;3.60;;;6.20;57.40;;;;;;4944933;28;20141;-60
2021/11/11 07:05:29;;;;;;;5.95;3.58;;;6.30;57.30;;;;;;4937434;28;20110;-60
2021/11/11 07:07:54;;;;;;;5.13;3.72;;;6.30;57.10;;;;;;4949025;29;20082;-59
2021/11/11 07:10:20;;;;;;;5.93;3.75;;;6.30;57.10;;;;;;4953366;28;20439;-60
2021/11/11 07:12:46;;;;;;;6.28;3.67;;;6.20;57.10;;;;;;4950923;28;20046;-60
2021/11/11 07:15:14;;;;;;;4.45;3.50;;;6.30;57.10;;;;;;4962084;28;20802;-58
2021/11/11 07:17:40;;;;;;;8.52;4.10;;;6.30;57.00;;;;;;4945552;29;20070;-59
2021/11/11 07:20:09;;;;;;;4.22;3.33;;;6.30;56.70;;;;;;4947825;28;20038;-60
2021/11/11 07:22:36;;;;;;;5.18;3.75;;;6.30;56.70;;;;;;4945925;28;20509;-59
2021/11/11 07:25:02;;;;;;;4.65;3.22;;;6.30;56.50;;;;;;4949522;28;20027;-59
2021/11/11 07:27:28;;;;;;;5.78;3.20;;;6.30;56.60;;;;;;4945318;28;20041;-60
2021/11/11 07:29:53;;;;;;;4.15;3.05;;;6.30;56.50;;;;;;4943726;28;20036;-60
2021/11/11 07:32:19;;;;;;;6.32;4.50;;;6.30;56.50;;;;;;4942593;28;20054;-60
2021/11/11 07:34:45;;;;;;;7.25;4.47;;;6.20;56.30;;;;;;4952245;28;20074;-59
2021/11/11 07:37:10;;;;;;;6.88;3.70;;;6.30;56.40;;;;;;4942780;28;20031;-60
2021/11/11 07:39:36;;;;;;;5.53;4.20;;;6.30;56.40;;;;;;4943868;28;20458;-60
2021/11/11 07:42:02;;;;;;;11.45;8.90;;;6.30;56.40;;;;;;4949044;28;20264;-60
2021/11/11 07:44:28;;;;;;;8.35;4.07;;;6.30;56.40;;;;;;4948624;28;20471;-60
2021/11/11 07:46:54;;;;;;;3.65;3.30;;;6.40;56.30;;;;;;4953422;28;20042;-60
2021/11/11 07:49:20;;;;;;;4.60;3.50;;;6.40;56.30;;;;;;4942385;28;20586;-60
2021/11/11 07:51:46;;;;;;;7.47;3.95;;;6.40;56.20;;;;;;4945858;28;20046;-60
2021/11/11 07:54:12;;;;;;;4.90;3.67;;;6.50;56.10;;;;;;4941054;29;20078;-60
2021/11/11 07:56:38;;;;;;;5.00;3.72;;;6.50;56.00;;;;;;4945669;28;20488;-60
2021/11/11 07:59:06;;;;;;;4.95;3.13;;;6.40;56.00;;;;;;4945983;29;20034;-60
2021/11/11 08:01:32;;;;;;;5.63;3.50;;;6.50;56.30;;;;;;4944276;28;20058;-60
2021/11/11 08:03:58;;;;;;;4.82;3.45;;;6.50;56.40;;;;;;4944865;28;20117;-60
2021/11/11 08:06:24;;;;;;;5.22;3.15;;;6.50;56.40;;;;;;4941398;28;20122;-60
2021/11/11 08:08:50;;;;;;;6.70;3.55;;;6.50;56.30;;;;;;4943357;29;20035;-60
2021/11/11 08:11:16;;;;;;;6.72;3.63;;;6.60;56.40;;;;;;4942451;28;20028;-60
2021/11/11 08:13:42;;;;;;;4.95;3.05;;;6.60;56.40;;;;;;4944815;28;20035;-60
2021/11/11 08:16:07;;;;;;;8.95;4.00;;;6.70;56.30;;;;;;4941923;29;20039;-60
2021/11/11 08:18:33;;;;;;;6.72;3.53;;;6.80;56.20;;;;;;4942365;28;20036;-60
2021/11/11 08:20:59;;;;;;;4.85;3.38;;;6.80;56.30;;;;;;4943968;29;20027;-60
2021/11/11 08:23:25;;;;;;;4.55;3.22;;;6.80;56.20;;;;;;4947595;28;20031;-60
2021/11/11 08:25:51;;;;;;;8.80;3.80;;;6.90;56.20;;;;;;4945361;29;20089;-60
2021/11/11 08:28:19;;;;;;;6.97;3.80;;;6.90;56.10;;;;;;4940294;29;20380;-59
2021/11/11 08:30:46;;;;;;;8.65;5.25;;;7.00;56.10;;;;;;4943531;28;20042;-60
2021/11/11 08:33:13;;;;;;;7.15;3.95;;;7.00;56.20;;;;;;4942285;29;20039;-60
2021/11/11 08:35:39;;;;;;;17.98;4.53;;;7.10;56.10;;;;;;4943276;28;20135;-59
2021/11/11 08:38:05;;;;;;;6.40;4.00;;;7.20;56.20;;;;;;4941314;29;20031;-60
2021/11/11 08:40:31;;;;;;;4.68;3.03;;;7.20;56.30;;;;;;4943898;29;20043;-59
2021/11/11 08:42:59;;;;;;;8.20;3.60;;;7.30;56.20;;;;;;4946194;28;20040;-60
2021/11/11 08:45:27;;;;;;;8.25;3.28;;;7.30;56.00;;;;;;4944184;29;20062;-60
2021/11/11 08:47:55;;;;;;;8.13;4.20;;;7.40;56.10;;;;;;4940806;29;20047;-60
2021/11/11 08:50:24;;;;;;;5.43;3.88;;;7.40;56.10;;;;;;4946177;28;20027;-60
2021/11/11 08:52:54;;;;;;;11.82;6.97;;;7.40;56.10;;;;;;4948758;28;20122;-60
2021/11/11 08:55:22;;;;;;;8.45;4.00;;;7.50;56.10;;;;;;4946112;28;20031;-60
2021/11/11 08:57:49;;;;;;;8.63;4.50;;;7.50;56.10;;;;;;4945980;29;20126;-60
2021/11/11 09:00:25;;;;;;;6.93;4.13;;;7.60;56.20;;;;;;4938730;28;20035;-60
2021/11/11 09:02:54;;;;;;;5.50;4.15;;;7.60;56.30;;;;;;4943470;29;20495;-60
2021/11/11 09:05:20;;;;;;;5.43;3.58;;;7.70;56.30;;;;;;4946294;28;20036;-60
2021/11/11 09:07:47;;;;;;;4.70;3.17;;;7.60;56.40;;;;;;4943519;29;20027;-60
2021/11/11 09:10:18;;;;;;;4.65;3.60;;;7.70;56.50;;;;;;4942802;28;20031;-60
2021/11/11 09:12:45;;;;;;;5.40;3.53;;;7.70;56.50;;;;;;4944211;28;20027;-60
2021/11/11 09:15:15;;;;;;;5.45;3.38;;;7.80;56.60;;;;;;4947756;28;20023;-60
2021/11/11 09:17:42;;;;;;;3.25;2.90;;;7.80;56.50;;;;;;4951830;28;20055;-60
2021/11/11 09:20:10;;;;;;;9.82;5.30;;;7.90;56.60;;;;;;4950382;28;20383;-60
2021/11/11 09:22:35;;;;;;;5.95;3.90;;;7.90;56.60;;;;;;4953844;29;20118;-60
2021/11/11 09:25:08;;;;;;;6.05;3.75;;;8.00;56.60;;;;;;4956175;28;20462;-59
2021/11/11 09:27:36;;;;;;;4.72;3.25;;;8.00;56.40;;;;;;4953047;28;20054;-60
2021/11/11 09:30:03;;;;;;;4.95;3.75;;;8.10;56.40;;;;;;4951745;29;20038;-60
2021/11/11 09:32:29;;;;;;;4.07;3.22;;;8.10;56.40;;;;;;4943565;29;20106;-60
2021/11/11 09:34:56;;;;;;;7.70;5.15;;;8.10;56.50;;;;;;4953121;28;20483;-58
2021/11/11 09:37:22;;;;;;;5.88;4.15;;;8.10;56.30;;;;;;4954912;28;20050;-60
2021/11/11 09:39:48;;;;;;;7.28;4.85;;;8.10;56.30;;;;;;4951380;28;20054;-60
2021/11/11 09:42:14;;;;;;;6.45;4.35;;;8.20;56.50;;;;;;4957670;28;20086;-60
2021/11/11 09:44:40;;;;;;;6.30;4.15;;;8.20;56.40;;;;;;4955029;28;20039;-60
2021/11/11 09:47:06;;;;;;;6.93;3.83;;;8.20;56.50;;;;;;4949548;28;20031;-60
2021/11/11 09:49:33;;;;;;;5.95;4.10;;;8.30;56.30;;;;;;4947143;28;20472;-60
2021/11/11 09:51:59;;;;;;;6.45;3.60;;;8.40;56.40;;;;;;4943437;28;20120;-60
2021/11/11 09:59:39;;;;;;;7.15;3.63;;;8.40;56.20;;;;;;4951399;28;20039;-60
2021/11/11 10:02:05;;;;;;;6.60;3.38;;;8.40;56.40;;;;;;4949294;28;20035;-59
2021/11/11 10:04:32;;;;;;;5.05;3.80;;;8.40;56.20;;;;;;4950813;28;20468;-60
2021/11/11 10:06:58;;;;;;;4.95;3.40;;;8.50;56.30;;;;;;4946133;29;20043;-60
2021/11/11 10:09:25;;;;;;;5.18;4.07;;;8.50;56.30;;;;;;4946427;28;20042;-60
2021/11/11 10:11:55;;;;;;;5.60;3.83;;;8.50;56.40;;;;;;4949821;28;20272;-60
2021/11/11 10:14:22;;;;;;;5.53;3.67;;;8.50;56.20;;;;;;4947876;29;20023;-60
2021/11/11 10:16:52;;;;;;;6.50;4.63;;;8.50;56.20;;;;;;4952917;28;20043;-60
2021/11/11 10:19:19;;;;;;;7.65;4.50;;;8.60;56.30;;;;;;4947692;28;20439;-60
2021/11/11 10:22:03;;;;;;;6.78;4.00;;;8.60;56.20;;;;;;4956551;28;20027;-60
2021/11/11 10:24:37;;;;;;;7.47;3.72;;;8.70;56.00;;;;;;4951441;28;20040;-60
2021/11/11 10:27:36;;;;;;;8.57;3.55;;;8.70;56.00;;;;;;4947954;28;20058;-60
2021/11/11 10:30:14;;;;;;;6.65;3.83;;;8.70;56.00;;;;;;4946827;28;20114;-59
2021/11/11 10:32:56;;;;;;;5.03;4.13;;;8.70;56.10;;;;;;4943959;29;20055;-59
2021/11/11 10:35:25;;;;;;;6.80;4.30;;;8.70;56.30;;;;;;4946133;28;20062;-60
2021/11/11 10:38:21;;;;;;;6.95;5.18;;;8.80;56.30;;;;;;4947070;29;20037;-60
2021/11/11 10:40:52;;;;;;;4.20;3.35;;;8.80;56.20;;;;;;4944842;28;20098;-60
2021/11/11 10:43:25;;;;;;;16.02;4.43;;;8.80;56.20;;;;;;4943436;28;20396;-60
2021/11/11 10:45:53;;;;;;;6.55;3.83;;;8.90;56.20;;;;;;4942479;28;20042;-60
2021/11/11 10:48:23;;;;;;;8.55;4.57;;;8.90;56.00;;;;;;4947974;28;20035;-60
2021/11/11 10:50:52;;;;;;;7.82;4.20;;;8.90;56.00;;;;;;4945146;28;20100;-60
2021/11/11 10:53:24;;;;;;;6.63;4.13;;;9.00;56.10;;;;;;4949905;28;20026;-60
2021/11/11 10:55:52;;;;;;;7.78;4.20;;;9.00;56.00;;;;;;4949775;28;20039;-60
2021/11/11 10:58:20;;;;;;;7.50;5.22;;;9.00;56.00;;;;;;4949691;28;20118;-59
2021/11/11 11:00:52;;;;;;;5.10;3.63;;;9.00;55.90;;;;;;4953178;28;20127;-60
2021/11/11 11:03:31;;;;;;;5.82;4.03;;;9.10;55.90;;;;;;4955789;28;20537;-60
2021/11/11 11:05:59;;;;;;;5.30;3.90;;;9.10;55.80;;;;;;4952629;28;20031;-60
2021/11/11 11:08:31;;;;;;;4.90;3.75;;;9.10;55.70;;;;;;4950389;28;20031;-60
2021/11/11 11:11:09;;;;;;;9.23;3.63;;;9.20;55.70;;;;;;4946369;28;20031;-60
2021/11/11 11:13:37;;;;;;;6.80;3.67;;;9.20;55.50;;;;;;4948086;28;20371;-58
2021/11/11 11:16:10;;;;;;;6.38;3.42;;;9.20;55.40;;;;;;4943395;28;20448;-60
2021/11/11 11:18:48;;;;;;;3.40;3.03;;;9.20;55.30;;;;;;4944250;29;20739;-60
2021/11/11 11:21:19;;;;;;;8.45;5.82;;;9.30;55.30;;;;;;4937969;28;20038;-59
2021/11/11 11:23:51;;;;;;;11.85;5.75;;;9.30;55.30;;;;;;4941853;28;20039;-60
2021/11/11 11:26:22;;;;;;;10.82;5.75;;;9.30;55.30;;;;;;4954317;28;20430;-60
2021/11/11 11:28:51;;;;;;;13.82;7.63;;;9.30;55.40;;;;;;4941242;28;20500;-59
2021/11/11 11:31:32;;;;;;;11.50;6.57;;;9.30;55.40;;;;;;4940777;28;20119;-59
2021/11/11 11:34:04;;;;;;;7.30;4.15;;;9.40;55.60;;;;;;4953768;28;20039;-60
2021/11/11 11:36:37;;;;;;;;;;;9.40;55.20;;;;;;4945885;28;20030;-59
2021/11/11 11:39:06;;;;;;;7.68;3.55;;;9.40;55.30;;;;;;4944510;29;19918;-59
2021/11/11 11:41:38;;;;;;;6.03;3.60;;;9.40;55.20;;;;;;4949555;28;20034;-59
2021/11/11 11:44:20;;;;;;;4.78;3.85;;;9.40;55.20;;;;;;4947804;28;20393;-59
2021/11/11 11:47:04;;;;;;;5.68;3.97;;;9.50;55.00;;;;;;4946553;29;20580;-59
2021/11/11 11:49:30;;;;;;;4.85;3.53;;;9.50;55.20;;;;;;4943973;29;20476;-59
2021/11/11 11:51:56;;;;;;;4.95;3.70;;;9.50;55.20;;;;;;4951640;28;20090;-59
2021/11/11 11:54:34;;;;;;;6.20;4.28;;;9.50;55.10;;;;;;4954208;28;20440;-60
2021/11/11 11:57:04;;;;;;;7.20;4.80;;;9.50;55.00;;;;;;4947614;28;20515;-59
2021/11/11 11:59:36;;;;;;;8.98;4.47;;;9.50;55.00;;;;;;4948619;28;20058;-60
2021/11/11 12:02:11;;;;;;;7.78;5.43;;;9.50;55.00;;;;;;4945316;28;20559;-59
2021/11/11 12:12:43;;;;;;;10.30;7.15;;;9.60;55.20;;;;;;4942051;29;20040;-60
2021/11/11 12:18:21;;;;;;;9.30;5.65;;;9.70;55.10;;;;;;4945458;29;20038;-60
2021/11/11 12:40:16;;;;;;;5.78;4.03;;;9.60;55.20;;;;;;4945172;29;20050;-60
2021/11/11 12:43:00;;;;;;;5.20;3.83;;;9.50;55.20;;;;;;4943960;29;20118;-59
2021/11/11 12:45:34;;;;;;;6.28;4.18;;;9.50;55.30;;;;;;4941482;29;20054;-60
2021/11/11 12:48:05;;;;;;;6.03;4.30;;;9.50;55.30;;;;;;4945387;28;20114;-59
2021/11/11 12:50:33;;;;;;;8.35;3.78;;;9.50;55.50;;;;;;4946541;28;20082;-60
2021/11/11 12:53:20;;;;;;;6.55;4.15;;;9.50;55.30;;;;;;4949461;29;20127;-60
2021/11/11 12:56:13;;;;;;;7.95;4.78;;;9.50;55.30;;;;;;4938390;29;20873;-60
2021/11/11 12:58:45;;;;;;;7.20;4.15;;;9.50;55.40;;;;;;4935292;28;20058;-60
2021/11/11 13:01:50;;;;;;;6.07;4.28;;;9.60;55.40;;;;;;4941471;29;20479;-59
2021/11/11 13:04:18;;;;;;;9.85;4.57;;;9.60;55.40;;;;;;4939463;28;20039;-60
2021/11/11 13:06:51;;;;;;;4.13;3.50;;;9.60;55.40;;;;;;4942815;28;20044;-59
2021/11/11 13:09:36;;;;;;;5.53;4.25;;;9.60;55.40;;;;;;4945282;29;20026;-60
2021/11/11 13:12:01;;;;;;;6.20;4.75;;;9.50;55.40;;;;;;4942525;28;20059;-60
2021/11/11 13:14:41;;;;;;;5.95;4.40;;;9.50;55.50;;;;;;4939373;29;20463;-60
2021/11/11 13:17:13;;;;;;;9.40;6.85;;;9.50;55.50;;;;;;4942325;29;20054;-60
2021/11/11 13:20:00;;;;;;;11.10;6.97;;;9.50;55.50;;;;;;4937529;28;20035;-59
2021/11/11 16:27:17;;;;;;;10.27;6.13;;;9.20;59.30;;;;;;4957899;28;20089;-59
2021/11/11 16:29:43;;;;;;;13.60;6.60;;;9.20;59.40;;;;;;4947378;28;20097;-61
2021/11/11 16:32:09;;;;;;;9.10;5.97;;;9.10;59.40;;;;;;4953425;28;20515;-60
2021/11/11 16:34:35;;;;;;;10.20;6.75;;;9.10;59.40;;;;;;4948592;28;20395;-60
2021/11/11 16:37:04;;;;;;;11.48;6.60;;;9.00;59.50;;;;;;4949378;29;20391;-60
2021/11/11 16:39:30;;;;;;;10.05;6.75;;;9.00;59.50;;;;;;4947739;28;20050;-60
2021/11/11 16:41:56;;;;;;;12.20;7.45;;;9.00;59.80;;;;;;4947972;28;20023;-61
2021/11/11 16:44:23;;;;;;;10.50;7.68;;;8.90;59.70;;;;;;4946258;28;20479;-61
2021/11/11 16:46:49;;;;;;;8.52;6.10;;;8.90;59.70;;;;;;4953263;28;20476;-60
2021/11/11 16:49:15;;;;;;;9.38;6.90;;;9.00;60.00;;;;;;4948922;28;20020;-60
2021/11/11 16:51:42;;;;;;;11.73;6.63;;;9.00;59.80;;;;;;4949109;28;20375;-60
2021/11/11 16:54:07;;;;;;;9.88;5.70;;;9.00;59.80;;;;;;4949330;28;20023;-60
2021/11/11 16:56:33;;;;;;;10.15;6.45;;;9.00;59.80;;;;;;4950687;28;20030;-60
2021/11/11 16:59:00;;;;;;;9.88;6.45;;;8.90;59.80;;;;;;4947748;28;20027;-60
2021/11/11 17:01:26;;;;;;;8.18;6.07;;;8.90;59.90;;;;;;4946384;28;20432;-60
2021/11/11 17:03:52;;;;;;;12.02;6.35;;;8.80;59.90;;;;;;4953130;28;20035;-60